sensor_id;sensor_type;location;lat;lon;timestamp;temperature;humidity
3548;DHT22;1788;49.400;11.092;2023-06-22T00:01:25;22.20;64.30
3548;DHT22;1788;49.400;11.092;2023-06-22T00:03:52;22.20;64.30
3548;DHT22;1788;49.400;11.092;2023-06-22T00:06:18;22.20;64.20
3548;DHT22;1788;49.400;11.092;2023-06-22T00:08:45;22.20;63.50
3548;DHT22;1788;49.400;11.092;2023-06-22T00:11:11;22.20;64.20
3548;DHT22;1788;49.400;11.092;2023-06-22T00:13:38;22.20;64.20
3548;DHT22;1788;49.400;11.092;2023-06-22T00:16:05;22.20;64.30
3548;DHT22;1788;49.400;11.092;2023-06-22T00:18:31;22.20;64.30
3548;DHT22;1788;49.400;11.092;2023-06-22T00:20:58;22.20;64.30
3548;DHT22;1788;49.400;11.092;2023-06-22T00:23:25;22.10;64.40
3548;DHT22;1788;49.400;11.092;2023-06-22T00:25:52;22.10;64.40
3548;DHT22;1788;49.400;11.092;2023-06-22T00:28:19;22.10;64.50
3548;DHT22;1788;49.400;11.092;2023-06-22T00:30:46;22.10;64.50
3548;DHT22;1788;49.400;11.092;2023-06-22T00:33:12;22.10;64.50
3548;DHT22;1788;49.400;11.092;2023-06-22T00:35:39;22.10;64.60
3548;DHT22;1788;49.400;11.092;2023-06-22T00:38:06;22.00;64.50
3548;DHT22;1788;49.400;11.092;2023-06-22T00:40:32;22.00;64.70
3548;DHT22;1788;49.400;11.092;2023-06-22T00:43:00;21.90;65.10
3548;DHT22;1788;49.400;11.092;2023-06-22T00:45:26;21.80;64.80
3548;DHT22;1788;49.400;11.092;2023-06-22T00:47:56;21.80;65.00
3548;DHT22;1788;49.400;11.092;2023-06-22T00:50:21;21.80;65.00
3548;DHT22;1788;49.400;11.092;2023-06-22T00:52:48;21.80;64.30
3548;DHT22;1788;49.400;11.092;2023-06-22T00:55:14;21.80;65.00
3548;DHT22;1788;49.400;11.092;2023-06-22T00:57:41;21.80;65.00
3548;DHT22;1788;49.400;11.092;2023-06-22T01:00:08;21.80;65.00
3548;DHT22;1788;49.400;11.092;2023-06-22T01:02:35;21.80;65.10
3548;DHT22;1788;49.400;11.092;2023-06-22T01:05:01;21.70;65.00
3548;DHT22;1788;49.400;11.092;2023-06-22T01:07:31;21.80;65.20
3548;DHT22;1788;49.400;11.092;2023-06-22T01:09:57;21.70;65.10
3548;DHT22;1788;49.400;11.092;2023-06-22T01:12:21;21.80;65.40
3548;DHT22;1788;49.400;11.092;2023-06-22T01:17:15;21.70;65.30
3548;DHT22;1788;49.400;11.092;2023-06-22T01:19:46;21.70;65.40
3548;DHT22;1788;49.400;11.092;2023-06-22T01:22:09;21.70;65.30
3548;DHT22;1788;49.400;11.092;2023-06-22T01:29:30;21.60;65.60
3548;DHT22;1788;49.400;11.092;2023-06-22T01:31:57;21.60;65.50
3548;DHT22;1788;49.400;11.092;2023-06-22T01:34:24;21.60;65.80
3548;DHT22;1788;49.400;11.092;2023-06-22T01:36:51;21.60;65.80
3548;DHT22;1788;49.400;11.092;2023-06-22T01:39:18;21.50;66.50
3548;DHT22;1788;49.400;11.092;2023-06-22T01:41:44;21.50;65.90
3548;DHT22;1788;49.400;11.092;2023-06-22T01:44:11;21.50;66.00
3548;DHT22;1788;49.400;11.092;2023-06-22T01:46:38;21.50;66.10
3548;DHT22;1788;49.400;11.092;2023-06-22T01:49:04;21.50;66.10
3548;DHT22;1788;49.400;11.092;2023-06-22T01:51:31;21.50;66.10
3548;DHT22;1788;49.400;11.092;2023-06-22T01:53:58;21.50;66.10
3548;DHT22;1788;49.400;11.092;2023-06-22T01:56:24;21.50;66.10
3548;DHT22;1788;49.400;11.092;2023-06-22T01:58:55;21.60;66.20
3548;DHT22;1788;49.400;11.092;2023-06-22T02:01:20;21.60;66.20
3548;DHT22;1788;49.400;11.092;2023-06-22T02:03:48;21.50;66.10
3548;DHT22;1788;49.400;11.092;2023-06-22T02:11:07;21.50;66.00
3548;DHT22;1788;49.400;11.092;2023-06-22T02:13:33;21.50;66.00
3548;DHT22;1788;49.400;11.092;2023-06-22T02:16:00;21.50;66.00
3548;DHT22;1788;49.400;11.092;2023-06-22T02:18:27;21.50;66.10
3548;DHT22;1788;49.400;11.092;2023-06-22T02:20:55;21.40;66.10
3548;DHT22;1788;49.400;11.092;2023-06-22T02:23:21;21.40;66.10
3548;DHT22;1788;49.400;11.092;2023-06-22T02:25:49;21.30;66.10
3548;DHT22;1788;49.400;11.092;2023-06-22T02:28:15;21.30;66.10
3548;DHT22;1788;49.400;11.092;2023-06-22T02:30:42;21.30;66.20
3548;DHT22;1788;49.400;11.092;2023-06-22T02:33:09;21.20;66.10
3548;DHT22;1788;49.400;11.092;2023-06-22T02:35:36;21.20;66.70
3548;DHT22;1788;49.400;11.092;2023-06-22T02:38:03;21.20;66.20
3548;DHT22;1788;49.400;11.092;2023-06-22T02:40:29;21.10;66.90
3548;DHT22;1788;49.400;11.092;2023-06-22T02:42:56;21.10;66.10
3548;DHT22;1788;49.400;11.092;2023-06-22T02:45:23;20.90;66.20
3548;DHT22;1788;49.400;11.092;2023-06-22T02:47:49;20.90;66.50
3548;DHT22;1788;49.400;11.092;2023-06-22T02:50:16;20.80;66.60
3548;DHT22;1788;49.400;11.092;2023-06-22T02:52:42;20.70;66.60
3548;DHT22;1788;49.400;11.092;2023-06-22T02:55:09;20.70;66.90
3548;DHT22;1788;49.400;11.092;2023-06-22T02:57:36;20.50;67.60
3548;DHT22;1788;49.400;11.092;2023-06-22T03:00:03;20.40;67.40
3548;DHT22;1788;49.400;11.092;2023-06-22T03:02:30;20.50;68.00
3548;DHT22;1788;49.400;11.092;2023-06-22T03:04:57;20.50;68.00
3548;DHT22;1788;49.400;11.092;2023-06-22T03:07:24;20.60;68.30
3548;DHT22;1788;49.400;11.092;2023-06-22T03:09:51;20.50;68.20
3548;DHT22;1788;49.400;11.092;2023-06-22T03:12:18;20.70;68.30
3548;DHT22;1788;49.400;11.092;2023-06-22T03:14:45;20.70;68.30
3548;DHT22;1788;49.400;11.092;2023-06-22T03:17:12;20.80;69.00
3548;DHT22;1788;49.400;11.092;2023-06-22T03:19:40;20.80;68.20
3548;DHT22;1788;49.400;11.092;2023-06-22T03:22:06;20.80;68.00
3548;DHT22;1788;49.400;11.092;2023-06-22T03:24:33;20.90;68.10
3548;DHT22;1788;49.400;11.092;2023-06-22T03:26:59;20.90;68.00
3548;DHT22;1788;49.400;11.092;2023-06-22T03:29:26;20.90;68.00
3548;DHT22;1788;49.400;11.092;2023-06-22T03:31:53;20.90;68.00
3548;DHT22;1788;49.400;11.092;2023-06-22T03:34:19;20.90;68.00
3548;DHT22;1788;49.400;11.092;2023-06-22T03:36:46;20.90;68.00
3548;DHT22;1788;49.400;11.092;2023-06-22T03:39:13;20.90;68.00
3548;DHT22;1788;49.400;11.092;2023-06-22T03:41:40;20.90;68.10
3548;DHT22;1788;49.400;11.092;2023-06-22T03:44:07;20.90;68.00
3548;DHT22;1788;49.400;11.092;2023-06-22T03:46:34;20.90;68.00
3548;DHT22;1788;49.400;11.092;2023-06-22T03:49:01;20.90;68.00
3548;DHT22;1788;49.400;11.092;2023-06-22T03:51:28;20.90;68.10
3548;DHT22;1788;49.400;11.092;2023-06-22T03:53:54;20.90;68.00
3548;DHT22;1788;49.400;11.092;2023-06-22T03:56:22;20.90;68.10
3548;DHT22;1788;49.400;11.092;2023-06-22T03:58:49;20.90;68.00
3548;DHT22;1788;49.400;11.092;2023-06-22T04:01:16;21.00;68.20
3548;DHT22;1788;49.400;11.092;2023-06-22T04:03:43;20.90;68.10
3548;DHT22;1788;49.400;11.092;2023-06-22T04:06:09;20.90;68.10
3548;DHT22;1788;49.400;11.092;2023-06-22T04:08:36;21.00;68.30
3548;DHT22;1788;49.400;11.092;2023-06-22T04:11:03;21.00;68.40
3548;DHT22;1788;49.400;11.092;2023-06-22T04:13:29;21.00;68.50
3548;DHT22;1788;49.400;11.092;2023-06-22T04:15:56;21.00;68.70
3548;DHT22;1788;49.400;11.092;2023-06-22T04:18:23;21.00;68.80
3548;DHT22;1788;49.400;11.092;2023-06-22T04:20:49;21.00;68.80
3548;DHT22;1788;49.400;11.092;2023-06-22T04:23:16;21.10;69.00
3548;DHT22;1788;49.400;11.092;2023-06-22T04:25:43;21.10;69.10
3548;DHT22;1788;49.400;11.092;2023-06-22T04:28:09;21.10;69.10
3548;DHT22;1788;49.400;11.092;2023-06-22T04:30:36;21.20;69.20
3548;DHT22;1788;49.400;11.092;2023-06-22T04:33:03;21.20;69.20
3548;DHT22;1788;49.400;11.092;2023-06-22T04:35:30;21.20;69.10
3548;DHT22;1788;49.400;11.092;2023-06-22T04:37:57;21.30;69.20
3548;DHT22;1788;49.400;11.092;2023-06-22T04:40:24;21.30;69.20
3548;DHT22;1788;49.400;11.092;2023-06-22T04:42:51;21.40;69.20
3548;DHT22;1788;49.400;11.092;2023-06-22T04:45:18;21.30;69.10
3548;DHT22;1788;49.400;11.092;2023-06-22T04:47:44;21.40;69.10
3548;DHT22;1788;49.400;11.092;2023-06-22T04:50:11;21.40;69.10
3548;DHT22;1788;49.400;11.092;2023-06-22T04:52:38;21.40;69.10
3548;DHT22;1788;49.400;11.092;2023-06-22T04:55:04;21.40;69.10
3548;DHT22;1788;49.400;11.092;2023-06-22T04:57:32;21.40;69.30
3548;DHT22;1788;49.400;11.092;2023-06-22T04:59:58;21.30;69.20
3548;DHT22;1788;49.400;11.092;2023-06-22T05:02:25;21.30;69.20
3548;DHT22;1788;49.400;11.092;2023-06-22T05:04:52;21.30;69.30
3548;DHT22;1788;49.400;11.092;2023-06-22T05:07:18;21.30;69.40
3548;DHT22;1788;49.400;11.092;2023-06-22T05:09:45;21.40;69.50
3548;DHT22;1788;49.400;11.092;2023-06-22T05:12:12;21.50;69.50
3548;DHT22;1788;49.400;11.092;2023-06-22T05:14:39;21.50;69.40
3548;DHT22;1788;49.400;11.092;2023-06-22T05:17:06;21.60;69.30
3548;DHT22;1788;49.400;11.092;2023-06-22T05:19:33;21.60;69.30
3548;DHT22;1788;49.400;11.092;2023-06-22T05:22:00;21.80;69.70
3548;DHT22;1788;49.400;11.092;2023-06-22T05:24:27;21.80;69.30
3548;DHT22;1788;49.400;11.092;2023-06-22T05:26:54;21.90;69.30
3548;DHT22;1788;49.400;11.092;2023-06-22T05:29:20;21.90;69.10
3548;DHT22;1788;49.400;11.092;2023-06-22T05:31:47;22.00;69.20
3548;DHT22;1788;49.400;11.092;2023-06-22T05:34:15;22.10;69.10
3548;DHT22;1788;49.400;11.092;2023-06-22T05:36:42;22.30;69.10
3548;DHT22;1788;49.400;11.092;2023-06-22T05:41:36;22.50;69.00
3548;DHT22;1788;49.400;11.092;2023-06-22T05:44:03;22.50;69.00
3548;DHT22;1788;49.400;11.092;2023-06-22T05:46:30;22.70;68.80
3548;DHT22;1788;49.400;11.092;2023-06-22T05:48:57;22.70;68.80
3548;DHT22;1788;49.400;11.092;2023-06-22T05:51:24;22.80;68.60
3548;DHT22;1788;49.400;11.092;2023-06-22T05:53:51;22.90;68.50
3548;DHT22;1788;49.400;11.092;2023-06-22T05:56:18;22.90;68.30
3548;DHT22;1788;49.400;11.092;2023-06-22T05:58:45;23.00;68.30
3548;DHT22;1788;49.400;11.092;2023-06-22T06:01:11;23.10;68.30
3548;DHT22;1788;49.400;11.092;2023-06-22T06:03:39;23.30;68.10
3548;DHT22;1788;49.400;11.092;2023-06-22T06:06:05;23.30;68.10
3548;DHT22;1788;49.400;11.092;2023-06-22T06:08:32;23.60;67.80
3548;DHT22;1788;49.400;11.092;2023-06-22T06:10:59;23.60;67.80
3548;DHT22;1788;49.400;11.092;2023-06-22T06:13:26;23.80;67.40
3548;DHT22;1788;49.400;11.092;2023-06-22T06:15:53;23.80;67.40
3548;DHT22;1788;49.400;11.092;2023-06-22T06:18:21;24.00;67.90
3548;DHT22;1788;49.400;11.092;2023-06-22T06:20:47;24.00;67.00
3548;DHT22;1788;49.400;11.092;2023-06-22T06:23:14;24.10;66.80
3548;DHT22;1788;49.400;11.092;2023-06-22T06:25:40;24.20;66.60
3548;DHT22;1788;49.400;11.092;2023-06-22T06:28:07;24.30;66.50
3548;DHT22;1788;49.400;11.092;2023-06-22T06:30:34;24.40;66.40
3548;DHT22;1788;49.400;11.092;2023-06-22T06:33:00;24.50;66.20
3548;DHT22;1788;49.400;11.092;2023-06-22T06:35:27;24.60;66.00
3548;DHT22;1788;49.400;11.092;2023-06-22T06:37:53;24.80;65.90
3548;DHT22;1788;49.400;11.092;2023-06-22T06:40:21;25.00;65.30
3548;DHT22;1788;49.400;11.092;2023-06-22T06:42:48;24.90;65.10
3548;DHT22;1788;49.400;11.092;2023-06-22T06:45:16;25.20;64.60
3548;DHT22;1788;49.400;11.092;2023-06-22T06:47:41;25.20;64.50
3548;DHT22;1788;49.400;11.092;2023-06-22T06:50:09;25.40;63.90
3548;DHT22;1788;49.400;11.092;2023-06-22T06:52:36;25.40;63.90
3548;DHT22;1788;49.400;11.092;2023-06-22T06:55:03;25.60;63.40
3548;DHT22;1788;49.400;11.092;2023-06-22T06:57:31;25.70;63.00
3548;DHT22;1788;49.400;11.092;2023-06-22T06:59:57;25.70;62.90
3548;DHT22;1788;49.400;11.092;2023-06-22T07:02:25;25.90;63.30
3548;DHT22;1788;49.400;11.092;2023-06-22T07:04:51;25.90;62.40
3548;DHT22;1788;49.400;11.092;2023-06-22T07:07:18;26.00;62.10
3548;DHT22;1788;49.400;11.092;2023-06-22T07:09:44;26.10;61.80
3548;DHT22;1788;49.400;11.092;2023-06-22T07:12:11;26.20;61.40
3548;DHT22;1788;49.400;11.092;2023-06-22T07:14:38;26.50;60.90
3548;DHT22;1788;49.400;11.092;2023-06-22T07:17:05;26.50;60.80
3548;DHT22;1788;49.400;11.092;2023-06-22T07:19:33;26.70;60.10
3548;DHT22;1788;49.400;11.092;2023-06-22T07:21:59;26.70;60.00
3548;DHT22;1788;49.400;11.092;2023-06-22T07:24:26;26.90;59.80
3548;DHT22;1788;49.400;11.092;2023-06-22T07:26:53;26.90;59.40
3548;DHT22;1788;49.400;11.092;2023-06-22T07:29:20;27.00;59.20
3548;DHT22;1788;49.400;11.092;2023-06-22T07:31:47;27.10;58.90
3548;DHT22;1788;49.400;11.092;2023-06-22T07:34:13;27.20;58.70
3548;DHT22;1788;49.400;11.092;2023-06-22T07:36:40;27.30;58.40
3548;DHT22;1788;49.400;11.092;2023-06-22T07:39:07;27.50;58.20
3548;DHT22;1788;49.400;11.092;2023-06-22T07:41:34;27.70;57.50
3548;DHT22;1788;49.400;11.092;2023-06-22T07:44:02;27.70;57.50
3548;DHT22;1788;49.400;11.092;2023-06-22T07:46:28;28.00;57.60
3548;DHT22;1788;49.400;11.092;2023-06-22T07:48:55;27.90;56.90
3548;DHT22;1788;49.400;11.092;2023-06-22T07:51:22;28.10;56.60
3548;DHT22;1788;49.400;11.092;2023-06-22T07:53:48;28.20;56.30
3548;DHT22;1788;49.400;11.092;2023-06-22T07:56:15;28.20;55.80
3548;DHT22;1788;49.400;11.092;2023-06-22T07:58:41;28.30;55.60
3548;DHT22;1788;49.400;11.092;2023-06-22T08:01:09;28.40;55.40
3548;DHT22;1788;49.400;11.092;2023-06-22T08:03:36;28.50;55.10
3548;DHT22;1788;49.400;11.092;2023-06-22T08:06:03;28.50;54.80
3548;DHT22;1788;49.400;11.092;2023-06-22T08:08:30;28.60;54.60
3548;DHT22;1788;49.400;11.092;2023-06-22T08:10:57;28.70;54.30
3548;DHT22;1788;49.400;11.092;2023-06-22T08:13:25;28.80;54.00
3548;DHT22;1788;49.400;11.092;2023-06-22T08:15:51;28.80;53.80
3548;DHT22;1788;49.400;11.092;2023-06-22T08:18:18;28.90;53.60
3548;DHT22;1788;49.400;11.092;2023-06-22T08:20:45;29.00;53.50
3548;DHT22;1788;49.400;11.092;2023-06-22T08:23:11;29.10;53.20
3548;DHT22;1788;49.400;11.092;2023-06-22T08:25:39;29.30;52.80
3548;DHT22;1788;49.400;11.092;2023-06-22T08:28:05;29.20;52.70
3548;DHT22;1788;49.400;11.092;2023-06-22T08:30:33;29.50;52.30
3548;DHT22;1788;49.400;11.092;2023-06-22T08:32:59;29.50;52.30
3548;DHT22;1788;49.400;11.092;2023-06-22T08:35:27;29.70;51.90
3548;DHT22;1788;49.400;11.092;2023-06-22T08:37:53;29.70;51.90
3548;DHT22;1788;49.400;11.092;2023-06-22T08:40:20;29.80;51.60
3548;DHT22;1788;49.400;11.092;2023-06-22T08:42:47;29.90;51.40
3548;DHT22;1788;49.400;11.092;2023-06-22T08:45:13;30.00;51.10
3548;DHT22;1788;49.400;11.092;2023-06-22T08:47:41;30.10;50.70
3548;DHT22;1788;49.400;11.092;2023-06-22T08:50:08;30.10;50.60
3548;DHT22;1788;49.400;11.092;2023-06-22T08:52:34;30.20;50.50
3548;DHT22;1788;49.400;11.092;2023-06-22T08:55:00;30.30;50.30
3548;DHT22;1788;49.400;11.092;2023-06-22T08:57:27;30.40;50.10
3548;DHT22;1788;49.400;11.092;2023-06-22T08:59:53;30.40;49.80
3548;DHT22;1788;49.400;11.092;2023-06-22T09:02:20;30.50;49.60
3548;DHT22;1788;49.400;11.092;2023-06-22T09:04:47;30.60;49.30
3548;DHT22;1788;49.400;11.092;2023-06-22T09:07:14;30.60;49.00
3548;DHT22;1788;49.400;11.092;2023-06-22T09:09:41;30.60;48.70
3548;DHT22;1788;49.400;11.092;2023-06-22T09:12:07;30.60;48.40
3548;DHT22;1788;49.400;11.092;2023-06-22T09:14:34;30.70;48.30
3548;DHT22;1788;49.400;11.092;2023-06-22T09:17:01;30.80;48.70
3548;DHT22;1788;49.400;11.092;2023-06-22T09:19:28;30.80;48.00
3548;DHT22;1788;49.400;11.092;2023-06-22T09:21:54;30.80;47.80
3548;DHT22;1788;49.400;11.092;2023-06-22T09:24:21;30.90;47.80
3548;DHT22;1788;49.400;11.092;2023-06-22T09:26:48;31.00;47.70
3548;DHT22;1788;49.400;11.092;2023-06-22T09:29:15;31.30;47.40
3548;DHT22;1788;49.400;11.092;2023-06-22T09:31:42;31.30;47.40
3548;DHT22;1788;49.400;11.092;2023-06-22T09:34:09;31.60;46.80
3548;DHT22;1788;49.400;11.092;2023-06-22T09:36:36;31.50;46.70
3548;DHT22;1788;49.400;11.092;2023-06-22T09:39:03;31.60;46.60
3548;DHT22;1788;49.400;11.092;2023-06-22T09:41:30;31.70;46.30
3548;DHT22;1788;49.400;11.092;2023-06-22T09:43:58;31.70;46.20
3548;DHT22;1788;49.400;11.092;2023-06-22T09:46:24;31.80;45.80
3548;DHT22;1788;49.400;11.092;2023-06-22T09:48:51;31.80;45.60
3548;DHT22;1788;49.400;11.092;2023-06-22T09:51:18;31.80;45.40
3548;DHT22;1788;49.400;11.092;2023-06-22T09:53:44;31.90;45.30
3548;DHT22;1788;49.400;11.092;2023-06-22T09:56:11;31.90;45.20
3548;DHT22;1788;49.400;11.092;2023-06-22T09:58:38;32.10;45.00
3548;DHT22;1788;49.400;11.092;2023-06-22T10:01:05;32.10;45.00
3548;DHT22;1788;49.400;11.092;2023-06-22T10:03:31;32.20;44.80
3548;DHT22;1788;49.400;11.092;2023-06-22T10:05:59;32.20;44.70
3548;DHT22;1788;49.400;11.092;2023-06-22T10:08:25;32.30;44.60
3548;DHT22;1788;49.400;11.092;2023-06-22T10:10:54;32.40;44.30
3548;DHT22;1788;49.400;11.092;2023-06-22T10:13:20;32.40;44.30
3548;DHT22;1788;49.400;11.092;2023-06-22T10:15:47;32.40;44.20
3548;DHT22;1788;49.400;11.092;2023-06-22T10:18:14;32.50;44.00
3548;DHT22;1788;49.400;11.092;2023-06-22T10:20:40;32.60;43.90
3548;DHT22;1788;49.400;11.092;2023-06-22T10:23:08;32.60;43.30
3548;DHT22;1788;49.400;11.092;2023-06-22T10:25:34;32.60;43.30
3548;DHT22;1788;49.400;11.092;2023-06-22T10:28:01;32.70;43.20
3548;DHT22;1788;49.400;11.092;2023-06-22T10:30:28;32.80;43.20
3548;DHT22;1788;49.400;11.092;2023-06-22T10:32:55;32.90;43.20
3548;DHT22;1788;49.400;11.092;2023-06-22T10:35:22;33.20;42.80
3548;DHT22;1788;49.400;11.092;2023-06-22T10:37:49;33.20;42.80
3548;DHT22;1788;49.400;11.092;2023-06-22T10:40:16;33.40;43.00
3548;DHT22;1788;49.400;11.092;2023-06-22T10:42:43;33.40;42.40
3548;DHT22;1788;49.400;11.092;2023-06-22T10:45:09;33.50;42.00
3548;DHT22;1788;49.400;11.092;2023-06-22T10:47:36;33.50;41.90
3548;DHT22;1788;49.400;11.092;2023-06-22T10:50:03;33.70;42.50
3548;DHT22;1788;49.400;11.092;2023-06-22T10:52:30;33.80;41.50
3548;DHT22;1788;49.400;11.092;2023-06-22T10:54:57;33.70;41.40
3548;DHT22;1788;49.400;11.092;2023-06-22T10:57:24;34.00;41.10
3548;DHT22;1788;49.400;11.092;2023-06-22T10:59:50;34.10;41.10
3548;DHT22;1788;49.400;11.092;2023-06-22T11:02:17;34.10;40.70
3548;DHT22;1788;49.400;11.092;2023-06-22T11:04:44;34.20;40.70
3548;DHT22;1788;49.400;11.092;2023-06-22T11:07:10;34.20;40.40
3548;DHT22;1788;49.400;11.092;2023-06-22T11:09:37;34.30;40.30
3548;DHT22;1788;49.400;11.092;2023-06-22T11:12:04;34.30;40.10
3548;DHT22;1788;49.400;11.092;2023-06-22T11:14:30;34.30;40.00
3548;DHT22;1788;49.400;11.092;2023-06-22T11:16:57;34.40;39.80
3548;DHT22;1788;49.400;11.092;2023-06-22T11:19:24;34.40;39.80
3548;DHT22;1788;49.400;11.092;2023-06-22T11:21:50;34.40;39.60
3548;DHT22;1788;49.400;11.092;2023-06-22T11:24:17;34.40;39.50
3548;DHT22;1788;49.400;11.092;2023-06-22T11:26:43;34.50;39.30
3548;DHT22;1788;49.400;11.092;2023-06-22T11:29:10;34.50;39.20
3548;DHT22;1788;49.400;11.092;2023-06-22T11:31:37;34.60;39.10
3548;DHT22;1788;49.400;11.092;2023-06-22T11:34:04;34.70;39.00
3548;DHT22;1788;49.400;11.092;2023-06-22T11:36:31;34.80;38.80
3548;DHT22;1788;49.400;11.092;2023-06-22T11:38:57;34.80;38.70
3548;DHT22;1788;49.400;11.092;2023-06-22T11:41:24;34.90;38.60
3548;DHT22;1788;49.400;11.092;2023-06-22T11:43:51;34.90;38.30
3548;DHT22;1788;49.400;11.092;2023-06-22T11:46:18;34.90;38.20
3548;DHT22;1788;49.400;11.092;2023-06-22T11:48:44;34.90;38.20
3548;DHT22;1788;49.400;11.092;2023-06-22T11:51:11;35.10;38.20
3548;DHT22;1788;49.400;11.092;2023-06-22T11:53:40;35.10;38.00
3548;DHT22;1788;49.400;11.092;2023-06-22T11:56:07;35.30;37.70
3548;DHT22;1788;49.400;11.092;2023-06-22T11:58:35;35.30;37.70
3548;DHT22;1788;49.400;11.092;2023-06-22T12:01:04;35.30;37.70
3548;DHT22;1788;49.400;11.092;2023-06-22T12:03:31;35.30;37.60
3548;DHT22;1788;49.400;11.092;2023-06-22T12:05:59;35.30;37.60
3548;DHT22;1788;49.400;11.092;2023-06-22T12:08:24;35.50;37.40
3548;DHT22;1788;49.400;11.092;2023-06-22T12:10:51;35.50;37.10
3548;DHT22;1788;49.400;11.092;2023-06-22T12:13:18;35.50;37.00
3548;DHT22;1788;49.400;11.092;2023-06-22T12:15:44;35.70;37.10
3548;DHT22;1788;49.400;11.092;2023-06-22T12:18:11;35.80;37.10
3548;DHT22;1788;49.400;11.092;2023-06-22T12:20:37;35.90;37.00
3548;DHT22;1788;49.400;11.092;2023-06-22T12:23:04;36.00;36.90
3548;DHT22;1788;49.400;11.092;2023-06-22T12:25:31;36.10;36.80
3548;DHT22;1788;49.400;11.092;2023-06-22T12:27:57;36.20;36.70
3548;DHT22;1788;49.400;11.092;2023-06-22T12:30:24;36.20;36.60
3548;DHT22;1788;49.400;11.092;2023-06-22T12:32:51;36.00;36.60
3548;DHT22;1788;49.400;11.092;2023-06-22T12:35:18;35.90;36.50
3548;DHT22;1788;49.400;11.092;2023-06-22T12:37:45;35.90;36.70
3548;DHT22;1788;49.400;11.092;2023-06-22T12:40:11;36.00;36.70
3548;DHT22;1788;49.400;11.092;2023-06-22T12:42:39;36.00;36.70
3548;DHT22;1788;49.400;11.092;2023-06-22T12:45:07;36.30;36.60
3548;DHT22;1788;49.400;11.092;2023-06-22T12:47:35;36.20;36.50
3548;DHT22;1788;49.400;11.092;2023-06-22T12:50:01;36.20;36.60
3548;DHT22;1788;49.400;11.092;2023-06-22T12:52:29;36.20;36.00
3548;DHT22;1788;49.400;11.092;2023-06-22T12:54:54;36.20;36.00
3548;DHT22;1788;49.400;11.092;2023-06-22T12:57:21;36.30;36.10
3548;DHT22;1788;49.400;11.092;2023-06-22T12:59:48;36.40;36.00
3548;DHT22;1788;49.400;11.092;2023-06-22T13:02:14;36.50;36.00
3548;DHT22;1788;49.400;11.092;2023-06-22T13:04:42;36.50;36.00
3548;DHT22;1788;49.400;11.092;2023-06-22T13:07:08;36.40;35.70
3548;DHT22;1788;49.400;11.092;2023-06-22T13:09:36;36.30;35.80
3548;DHT22;1788;49.400;11.092;2023-06-22T13:12:02;36.30;35.80
3548;DHT22;1788;49.400;11.092;2023-06-22T13:14:28;36.30;35.80
3548;DHT22;1788;49.400;11.092;2023-06-22T13:16:55;36.40;35.80
3548;DHT22;1788;49.400;11.092;2023-06-22T13:19:22;36.30;35.80
3548;DHT22;1788;49.400;11.092;2023-06-22T13:21:49;36.30;35.80
3548;DHT22;1788;49.400;11.092;2023-06-22T13:24:15;36.30;36.00
3548;DHT22;1788;49.400;11.092;2023-06-22T13:26:42;36.30;36.10
3548;DHT22;1788;49.400;11.092;2023-06-22T13:29:08;36.30;36.10
3548;DHT22;1788;49.400;11.092;2023-06-22T13:31:36;36.30;36.00
3548;DHT22;1788;49.400;11.092;2023-06-22T13:34:02;36.40;36.10
3548;DHT22;1788;49.400;11.092;2023-06-22T13:36:29;36.40;36.00
3548;DHT22;1788;49.400;11.092;2023-06-22T13:38:55;36.40;35.80
3548;DHT22;1788;49.400;11.092;2023-06-22T13:41:22;36.30;35.70
3548;DHT22;1788;49.400;11.092;2023-06-22T13:43:49;36.10;35.80
3548;DHT22;1788;49.400;11.092;2023-06-22T13:46:15;36.00;35.80
3548;DHT22;1788;49.400;11.092;2023-06-22T13:48:42;35.90;36.00
3548;DHT22;1788;49.400;11.092;2023-06-22T13:51:09;35.80;36.10
3548;DHT22;1788;49.400;11.092;2023-06-22T13:53:35;35.80;36.20
3548;DHT22;1788;49.400;11.092;2023-06-22T13:56:02;35.80;36.20
3548;DHT22;1788;49.400;11.092;2023-06-22T13:58:28;35.80;36.20
3548;DHT22;1788;49.400;11.092;2023-06-22T14:00:55;35.80;36.20
3548;DHT22;1788;49.400;11.092;2023-06-22T14:03:22;35.90;36.30
3548;DHT22;1788;49.400;11.092;2023-06-22T14:05:48;35.90;36.40
3548;DHT22;1788;49.400;11.092;2023-06-22T14:08:15;36.00;36.50
3548;DHT22;1788;49.400;11.092;2023-06-22T14:10:42;36.00;36.30
3548;DHT22;1788;49.400;11.092;2023-06-22T14:13:08;36.00;35.90
3548;DHT22;1788;49.400;11.092;2023-06-22T14:15:36;36.10;35.60
3548;DHT22;1788;49.400;11.092;2023-06-22T14:18:02;36.10;35.60
3548;DHT22;1788;49.400;11.092;2023-06-22T14:20:29;36.10;35.40
3548;DHT22;1788;49.400;11.092;2023-06-22T14:22:56;36.10;35.30
3548;DHT22;1788;49.400;11.092;2023-06-22T14:25:22;36.10;35.30
3548;DHT22;1788;49.400;11.092;2023-06-22T14:27:49;36.10;35.30
3548;DHT22;1788;49.400;11.092;2023-06-22T14:30:16;36.10;35.30
3548;DHT22;1788;49.400;11.092;2023-06-22T14:32:43;36.00;35.30
3548;DHT22;1788;49.400;11.092;2023-06-22T14:35:09;36.00;35.40
3548;DHT22;1788;49.400;11.092;2023-06-22T14:37:35;36.00;35.50
3548;DHT22;1788;49.400;11.092;2023-06-22T14:40:02;36.00;35.60
3548;DHT22;1788;49.400;11.092;2023-06-22T14:42:29;36.00;35.40
3548;DHT22;1788;49.400;11.092;2023-06-22T14:44:55;36.00;35.30
3548;DHT22;1788;49.400;11.092;2023-06-22T14:47:22;35.90;35.10
3548;DHT22;1788;49.400;11.092;2023-06-22T14:49:49;35.80;35.10
3548;DHT22;1788;49.400;11.092;2023-06-22T14:52:16;35.80;35.10
3548;DHT22;1788;49.400;11.092;2023-06-22T14:54:43;35.70;35.00
3548;DHT22;1788;49.400;11.092;2023-06-22T14:57:09;35.80;35.00
3548;DHT22;1788;49.400;11.092;2023-06-22T14:59:36;35.90;34.90
3548;DHT22;1788;49.400;11.092;2023-06-22T15:02:04;35.90;34.90
3548;DHT22;1788;49.400;11.092;2023-06-22T15:04:30;35.90;34.80
3548;DHT22;1788;49.400;11.092;2023-06-22T15:06:57;36.00;34.70
3548;DHT22;1788;49.400;11.092;2023-06-22T15:09:24;36.00;34.60
3548;DHT22;1788;49.400;11.092;2023-06-22T15:11:50;36.10;34.50
3548;DHT22;1788;49.400;11.092;2023-06-22T15:14:17;36.20;34.40
3548;DHT22;1788;49.400;11.092;2023-06-22T15:16:43;36.20;34.20
3548;DHT22;1788;49.400;11.092;2023-06-22T15:19:10;36.20;34.00
3548;DHT22;1788;49.400;11.092;2023-06-22T15:21:37;36.10;34.00
3548;DHT22;1788;49.400;11.092;2023-06-22T15:24:03;36.10;34.10
3548;DHT22;1788;49.400;11.092;2023-06-22T15:26:30;36.10;34.10
3548;DHT22;1788;49.400;11.092;2023-06-22T15:28:57;36.10;34.10
3548;DHT22;1788;49.400;11.092;2023-06-22T15:31:26;36.10;34.10
3548;DHT22;1788;49.400;11.092;2023-06-22T15:33:51;36.10;34.10
3548;DHT22;1788;49.400;11.092;2023-06-22T15:36:18;36.20;34.00
3548;DHT22;1788;49.400;11.092;2023-06-22T15:38:44;36.30;34.50
3548;DHT22;1788;49.400;11.092;2023-06-22T15:41:11;36.30;33.80
3548;DHT22;1788;49.400;11.092;2023-06-22T15:43:38;36.40;33.80
3548;DHT22;1788;49.400;11.092;2023-06-22T15:46:04;36.50;33.70
3548;DHT22;1788;49.400;11.092;2023-06-22T15:48:31;36.60;33.60
3548;DHT22;1788;49.400;11.092;2023-06-22T15:50:58;36.60;33.30
3548;DHT22;1788;49.400;11.092;2023-06-22T15:53:24;36.50;33.10
3548;DHT22;1788;49.400;11.092;2023-06-22T15:55:51;36.50;33.10